createdAt,value
2018-11-03T00:01:17.620Z,101594.83
2018-11-03T00:03:45.793Z,101601.20
2018-11-03T00:06:14.009Z,101604.05
2018-11-03T00:08:42.234Z,101606.86
2018-11-03T00:11:10.416Z,101607.16
2018-11-03T00:13:38.583Z,101607.59
2018-11-03T00:16:06.830Z,101609.62
2018-11-03T00:18:34.960Z,101607.22
2018-11-03T00:21:03.430Z,101603.55
2018-11-03T00:23:31.665Z,101600.02
2018-11-03T00:25:59.782Z,101592.55
2018-11-03T00:28:27.935Z,101598.87
2018-11-03T00:30:56.092Z,101595.11
2018-11-03T00:33:25.147Z,101589.18
2018-11-03T00:35:54.084Z,101594.70
2018-11-03T00:38:22.278Z,101580.31
2018-11-03T00:40:51.151Z,101588.95
2018-11-03T00:43:20.284Z,101595.03
2018-11-03T00:45:48.440Z,101594.47
2018-11-03T00:48:16.816Z,101592.80
2018-11-03T00:50:44.957Z,101595.33
2018-11-03T00:53:13.769Z,101587.33
2018-11-03T00:55:41.884Z,101586.63
2018-11-03T00:58:09.973Z,101582.91
2018-11-03T01:00:38.167Z,101581.06
2018-11-03T01:03:06.353Z,101588.29
2018-11-03T01:05:35.461Z,101582.11
2018-11-03T01:08:10.474Z,101581.86
2018-11-03T01:10:38.581Z,101579.35
2018-11-03T01:13:06.743Z,101571.83
2018-11-03T01:15:34.847Z,101568.66
2018-11-03T01:18:03.015Z,101572.09
2018-11-03T01:20:31.143Z,101573.95
2018-11-03T01:22:59.275Z,101573.03
2018-11-03T01:25:27.431Z,101579.21
2018-11-03T01:27:55.567Z,101576.20
2018-11-03T01:30:23.701Z,101579.67
2018-11-03T01:32:51.831Z,101578.52
2018-11-03T01:35:19.959Z,101587.81
2018-11-03T01:37:48.109Z,101590.95
2018-11-03T01:40:16.239Z,101580.95
2018-11-03T01:42:44.398Z,101587.01
2018-11-03T01:45:12.983Z,101585.31
2018-11-03T01:47:41.167Z,101588.41
2018-11-03T01:50:10.988Z,101585.75
2018-11-03T01:52:40.668Z,101584.78
2018-11-03T01:55:08.855Z,101588.50
2018-11-03T01:57:37.657Z,101593.21
2018-11-03T02:00:07.214Z,101599.31
2018-11-03T02:02:35.335Z,101596.94
2018-11-03T02:05:03.512Z,101597.61
2018-11-03T02:07:32.189Z,101596.82
2018-11-03T02:10:01.010Z,101604.20
2018-11-03T02:12:29.168Z,101603.72
2018-11-03T02:14:57.277Z,101597.62
2018-11-03T02:17:25.424Z,101608.41
2018-11-03T02:19:53.596Z,101603.00
2018-11-03T02:22:21.663Z,101603.17
2018-11-03T02:24:50.118Z,101606.03
2018-11-03T02:27:18.184Z,101602.19
2018-11-03T02:29:46.348Z,101609.04
2018-11-03T02:32:14.461Z,101612.95
2018-11-03T02:34:42.623Z,101610.93
2018-11-03T02:37:11.496Z,101616.85
2018-11-03T02:39:39.652Z,101617.70
2018-11-03T02:42:08.596Z,101619.54
2018-11-03T02:44:36.885Z,101618.51
2018-11-03T02:47:05.743Z,101619.58
2018-11-03T02:49:34.448Z,101619.09
2018-11-03T02:52:03.157Z,101619.05
2018-11-03T02:54:31.310Z,101628.27
2018-11-03T02:56:59.462Z,101623.25
2018-11-03T02:59:27.608Z,101621.55
2018-11-03T03:01:55.708Z,101627.61
2018-11-03T03:04:23.889Z,101615.68
2018-11-03T03:06:52.005Z,101621.73
2018-11-03T03:09:20.157Z,101617.20
2018-11-03T03:11:48.270Z,101612.50
2018-11-03T03:14:17.159Z,101617.75
2018-11-03T03:16:45.269Z,101610.84
2018-11-03T03:19:13.499Z,101614.20
2018-11-03T03:21:41.643Z,101625.27
2018-11-03T03:24:10.791Z,101615.55
2018-11-03T03:26:39.023Z,101622.31
2018-11-03T03:29:07.881Z,101626.17
2018-11-03T03:31:36.654Z,101632.78
2018-11-03T03:34:04.998Z,101632.60
2018-11-03T03:36:33.728Z,101640.84
2018-11-03T03:39:02.749Z,101642.18
2018-11-03T03:41:31.068Z,101652.55
2018-11-03T03:43:59.198Z,101646.33
2018-11-03T03:46:27.345Z,101642.12
2018-11-03T03:48:55.467Z,101650.89
2018-11-03T03:51:23.661Z,101648.52
2018-11-03T03:53:51.762Z,101659.94
2018-11-03T03:56:19.888Z,101658.59
2018-11-03T03:58:48.013Z,101660.12
2018-11-03T04:01:16.182Z,101665.64
2018-11-03T04:03:44.428Z,101674.55
2018-11-03T04:06:13.624Z,101673.17
2018-11-03T04:08:42.559Z,101666.95
2018-11-03T04:11:11.168Z,101663.09
2018-11-03T04:13:39.288Z,101665.06
2018-11-03T04:16:07.446Z,101666.27
2018-11-03T04:18:36.001Z,101672.53
2018-11-03T04:21:04.250Z,101674.37
2018-11-03T04:23:32.371Z,101677.61
2018-11-03T04:26:00.491Z,101675.89
2018-11-03T04:28:28.634Z,101684.98
2018-11-03T04:30:56.841Z,101681.97
2018-11-03T04:33:25.084Z,101683.45
2018-11-03T04:35:53.370Z,101687.14
2018-11-03T04:38:21.979Z,101678.75
2018-11-03T04:40:50.141Z,101686.66
2018-11-03T04:43:18.270Z,101686.47
2018-11-03T04:45:46.677Z,101683.08
2018-11-03T04:48:14.776Z,101689.16
2018-11-03T04:50:42.924Z,101699.73
2018-11-03T04:53:11.094Z,101703.23
2018-11-03T04:55:39.253Z,101697.69
2018-11-03T04:58:07.425Z,101700.23
2018-11-03T05:00:35.557Z,101696.20
2018-11-03T05:03:04.335Z,101693.56
2018-11-03T05:05:32.435Z,101704.47
2018-11-03T05:08:01.553Z,101701.80
2018-11-03T05:10:30.305Z,101701.80
2018-11-03T05:12:59.387Z,101696.92
2018-11-03T05:15:27.751Z,101697.91
2018-11-03T05:17:55.887Z,101696.57
2018-11-03T05:20:24.080Z,101687.48
2018-11-03T05:22:52.198Z,101690.35
2018-11-03T05:25:20.285Z,101693.51
2018-11-03T05:27:48.417Z,101698.39
2018-11-03T05:30:16.533Z,101698.03
2018-11-03T05:32:44.657Z,101698.42
2018-11-03T05:35:12.781Z,101701.58
2018-11-03T05:37:40.946Z,101701.72
2018-11-03T05:40:09.159Z,101705.61
2018-11-03T05:42:37.533Z,101709.14
2018-11-03T05:45:05.807Z,101714.55
2018-11-03T05:47:33.957Z,101712.82
2018-11-03T05:50:02.097Z,101710.14
2018-11-03T05:52:30.813Z,101713.14
2018-11-03T05:54:58.981Z,101714.66
2018-11-03T05:57:27.337Z,101716.83
2018-11-03T05:59:57.256Z,101711.13
2018-11-03T06:02:25.412Z,101725.77
2018-11-03T06:04:53.671Z,101721.53
2018-11-03T06:07:21.968Z,101733.63
2018-11-03T06:09:50.204Z,101734.77
2018-11-03T06:12:18.624Z,101731.41
2018-11-03T06:14:46.800Z,101737.95
2018-11-03T06:17:14.935Z,101735.09
2018-11-03T06:19:43.108Z,101746.38
2018-11-03T06:22:11.362Z,101742.22
2018-11-03T06:24:39.482Z,101741.89
2018-11-03T06:27:07.764Z,101746.55
2018-11-03T06:29:36.246Z,101749.44
2018-11-03T06:32:05.016Z,101746.61
2018-11-03T06:34:33.232Z,101745.41
2018-11-03T06:37:01.443Z,101749.44
2018-11-03T06:39:29.738Z,101755.11
2018-11-03T06:41:58.000Z,101753.47
2018-11-03T06:44:26.169Z,101756.31
2018-11-03T06:46:54.536Z,101748.25
2018-11-03T06:49:23.787Z,101752.83
2018-11-03T06:51:52.958Z,101756.52
2018-11-03T06:54:21.564Z,101759.34
2018-11-03T06:56:49.684Z,101760.02
2018-11-03T06:59:18.269Z,101750.93
2018-11-03T07:01:46.667Z,101752.42
2018-11-03T07:04:15.329Z,101759.00
2018-11-03T07:06:43.480Z,101763.00
2018-11-03T07:09:12.675Z,101763.11
2018-11-03T07:11:41.800Z,101758.41
2018-11-03T07:14:10.091Z,101767.91
2018-11-03T07:16:38.260Z,101764.14
2018-11-03T07:19:06.458Z,101772.32
2018-11-03T07:21:34.692Z,101767.91
2018-11-03T07:24:02.847Z,101768.41
2018-11-03T07:26:32.034Z,101767.53
2018-11-03T07:29:01.462Z,101766.20
2018-11-03T07:31:30.512Z,101773.84
2018-11-03T07:33:58.604Z,101772.56
2018-11-03T07:36:26.791Z,101774.12
2018-11-03T07:38:55.023Z,101778.84
2018-11-03T07:41:23.259Z,101781.17
2018-11-03T07:43:51.324Z,101784.27
2018-11-03T07:46:19.519Z,101784.26
2018-11-03T07:48:47.845Z,101780.53
2018-11-03T07:51:15.929Z,101786.22
2018-11-03T07:53:44.107Z,101788.09
2018-11-03T07:56:12.259Z,101782.75
2018-11-03T07:58:40.385Z,101784.46
2018-11-03T08:01:08.559Z,101783.88
2018-11-03T08:03:36.764Z,101783.32
2018-11-03T08:06:05.357Z,101787.52
2018-11-03T08:08:33.454Z,101785.27
2018-11-03T08:11:01.938Z,101778.98
2018-11-03T08:13:30.486Z,101776.15
2018-11-03T08:15:58.626Z,101779.26
2018-11-03T08:18:26.773Z,101790.42
2018-11-03T08:20:54.975Z,101781.88
2018-11-03T08:23:23.129Z,101787.53
2018-11-03T08:25:51.263Z,101787.75
2018-11-03T08:28:19.474Z,101789.92
2018-11-03T08:30:48.477Z,101786.19
2018-11-03T08:33:16.684Z,101796.05
2018-11-03T08:35:44.859Z,101795.34
2018-11-03T08:38:13.022Z,101790.83
2018-11-03T08:40:41.170Z,101794.19
2018-11-03T08:43:09.377Z,101788.72
2018-11-03T08:45:37.532Z,101791.04
2018-11-03T08:48:06.368Z,101783.61
2018-11-03T08:50:34.544Z,101782.02
2018-11-03T08:53:02.770Z,101781.20
2018-11-03T08:55:30.992Z,101773.15
2018-11-03T08:57:59.160Z,101772.39
2018-11-03T09:00:27.294Z,101774.70
2018-11-03T09:02:55.444Z,101775.28
2018-11-03T09:05:23.624Z,101778.05
2018-11-03T09:07:51.762Z,101771.34
2018-11-03T09:10:19.927Z,101776.53
2018-11-03T09:12:48.072Z,101770.03
2018-11-03T09:15:16.327Z,101769.55
2018-11-03T09:17:45.610Z,101777.00
2018-11-03T09:20:13.729Z,101780.30
2018-11-03T09:22:41.965Z,101773.54
2018-11-03T09:25:12.614Z,101780.47
2018-11-03T09:27:41.804Z,101769.45
2018-11-03T09:30:13.148Z,101770.42
2018-11-03T09:32:41.431Z,101777.55
2018-11-03T09:35:10.541Z,101780.24
2018-11-03T09:37:38.750Z,101772.44
2018-11-03T09:40:10.060Z,101774.00
2018-11-03T09:42:38.225Z,101778.55
2018-11-03T09:45:07.566Z,101775.52
2018-11-03T09:47:35.729Z,101767.38
2018-11-03T09:50:04.141Z,101765.66
2018-11-03T09:52:32.277Z,101766.44
2018-11-03T09:55:00.447Z,101770.38
2018-11-03T09:57:28.643Z,101771.38
2018-11-03T09:59:56.873Z,101768.87
2018-11-03T10:02:25.153Z,101771.38
2018-11-03T10:04:53.378Z,101761.48
2018-11-03T10:07:21.535Z,101763.51
2018-11-03T10:09:49.737Z,101761.65
2018-11-03T10:12:17.974Z,101754.44
2018-11-03T10:14:46.414Z,101756.66
2018-11-03T10:17:14.655Z,101757.31
2018-11-03T10:19:42.879Z,101759.44
2018-11-03T10:22:11.235Z,101756.94
2018-11-03T10:24:39.332Z,101761.63
2018-11-03T10:27:07.204Z,101756.72
2018-11-03T10:29:35.390Z,101759.34
2018-11-03T10:32:03.674Z,101754.31
2018-11-03T10:34:31.852Z,101752.08
2018-11-03T10:37:00.071Z,101750.10
2018-11-03T10:39:28.258Z,101747.65
2018-11-03T10:41:56.616Z,101749.00
2018-11-03T10:44:24.854Z,101747.34
2018-11-03T10:46:53.030Z,101744.31
2018-11-03T10:49:22.198Z,101743.63
2018-11-03T10:51:50.378Z,101742.14
2018-11-03T10:54:18.852Z,101746.17
2018-11-03T10:56:47.042Z,101742.52
2018-11-03T10:59:15.243Z,101745.81
2018-11-03T11:01:49.005Z,101742.37
2018-11-03T11:04:22.940Z,101745.47
2018-11-03T11:06:56.721Z,101741.38
2018-11-03T11:10:34.324Z,101735.75
2018-11-03T11:13:15.013Z,101737.10
2018-11-03T11:15:44.134Z,101737.44
2018-11-03T11:18:13.074Z,101731.86
2018-11-03T11:20:41.261Z,101726.36
2018-11-03T11:23:09.519Z,101724.06
2018-11-03T11:25:38.640Z,101729.46
2018-11-03T11:28:07.123Z,101723.95
2018-11-03T11:30:35.848Z,101727.48
2018-11-03T11:33:05.714Z,101721.37
2018-11-03T11:35:34.078Z,101721.44
2018-11-03T11:38:02.343Z,101709.42
2018-11-03T11:40:30.548Z,101705.23
2018-11-03T11:42:59.294Z,101702.32
2018-11-03T11:45:27.445Z,101703.99
2018-11-03T11:47:55.603Z,101701.70
2018-11-03T11:50:23.832Z,101707.53
2018-11-03T11:52:52.224Z,101703.21
2018-11-03T11:55:20.395Z,101706.17
2018-11-03T11:57:49.070Z,101709.94
2018-11-03T12:00:17.453Z,101697.35
2018-11-03T12:02:46.367Z,101691.14
2018-11-03T12:05:14.627Z,101689.06
2018-11-03T12:07:43.538Z,101685.55
2018-11-03T12:10:11.762Z,101683.84
2018-11-03T12:12:39.966Z,101685.78
2018-11-03T12:15:08.998Z,101685.60
2018-11-03T12:17:37.222Z,101684.53
2018-11-03T12:20:05.842Z,101680.91
2018-11-03T12:22:34.038Z,101678.64
2018-11-03T12:25:02.366Z,101674.33
2018-11-03T12:27:30.604Z,101674.55
2018-11-03T12:29:58.820Z,101681.20
2018-11-03T12:32:27.010Z,101678.66
2018-11-03T12:34:55.180Z,101676.09
2018-11-03T12:37:23.430Z,101668.12
2018-11-03T12:39:51.624Z,101659.56
2018-11-03T12:42:19.796Z,101657.14
2018-11-03T12:44:48.058Z,101661.36
2018-11-03T12:47:16.213Z,101656.31
2018-11-03T12:49:45.550Z,101664.02
2018-11-03T12:52:13.717Z,101653.12
2018-11-03T12:54:42.030Z,101653.59
2018-11-03T12:57:10.185Z,101661.27
2018-11-03T12:59:38.345Z,101658.94
2018-11-03T13:02:06.807Z,101659.56
2018-11-03T13:04:34.992Z,101653.72
2018-11-03T13:07:03.921Z,101648.11
2018-11-03T13:09:32.056Z,101651.59
2018-11-03T13:12:00.579Z,101651.03
2018-11-03T13:14:28.711Z,101653.30
2018-11-03T13:16:56.856Z,101657.16
2018-11-03T13:19:25.001Z,101656.82
2018-11-03T13:21:53.175Z,101654.73
2018-11-03T13:24:22.374Z,101658.42
2018-11-03T13:26:50.586Z,101653.15
2018-11-03T13:29:18.750Z,101656.02
2018-11-03T13:31:46.908Z,101653.75
2018-11-03T13:34:15.111Z,101651.72
2018-11-03T13:36:43.414Z,101651.09
2018-11-03T13:39:11.547Z,101654.82
2018-11-03T13:41:40.661Z,101654.20
2018-11-03T13:44:09.360Z,101648.70
2018-11-03T13:46:37.566Z,101640.61
2018-11-03T13:49:05.897Z,101643.58
2018-11-03T13:51:34.041Z,101643.80
2018-11-03T13:54:02.680Z,101644.65
2018-11-03T13:56:31.057Z,101642.36
2018-11-03T13:58:59.241Z,101652.89
2018-11-03T14:01:27.448Z,101639.76
2018-11-03T14:03:55.610Z,101634.34
2018-11-03T14:06:24.063Z,101635.17
2018-11-03T14:08:52.255Z,101629.11
2018-11-03T14:11:20.584Z,101631.32
2018-11-03T14:13:48.690Z,101636.13
2018-11-03T14:16:16.907Z,101636.22
2018-11-03T14:18:45.088Z,101633.30
2018-11-03T14:21:13.289Z,101632.45
2018-11-03T14:23:41.448Z,101630.38
2018-11-03T14:26:09.689Z,101627.09
2018-11-03T14:28:37.790Z,101630.28
2018-11-03T14:31:06.001Z,101631.94
2018-11-03T14:33:34.141Z,101634.34
2018-11-03T14:36:03.023Z,101626.28
2018-11-03T14:38:31.232Z,101627.70
2018-11-03T14:40:59.414Z,101623.06
2018-11-03T14:43:27.552Z,101623.12
2018-11-03T14:45:55.762Z,101618.70
2018-11-03T14:48:23.917Z,101616.60
2018-11-03T14:50:52.190Z,101622.59
2018-11-03T14:53:20.869Z,101614.59
2018-11-03T14:55:49.143Z,101618.27
2018-11-03T14:58:17.550Z,101608.90
2018-11-03T15:00:45.738Z,101611.52
2018-11-03T15:03:13.882Z,101612.78
2018-11-03T15:05:42.013Z,101619.64
2018-11-03T15:08:10.163Z,101616.95
2018-11-03T15:10:38.352Z,101610.69
2018-11-03T15:13:06.538Z,101618.94
2018-11-03T15:15:34.719Z,101609.98
2018-11-03T15:18:02.938Z,101608.77
2018-11-03T15:20:31.249Z,101605.34
2018-11-03T15:22:59.416Z,101599.02
2018-11-03T15:25:27.636Z,101602.58
2018-11-03T15:27:55.824Z,101600.23
2018-11-03T15:30:23.994Z,101609.05
2018-11-03T15:32:53.058Z,101610.81
2018-11-03T15:35:21.209Z,101606.69
2018-11-03T15:37:49.359Z,101608.55
2018-11-03T15:40:17.617Z,101604.98
2018-11-03T15:42:45.766Z,101598.50
2018-11-03T15:45:15.986Z,101602.75
2018-11-03T15:47:44.609Z,101602.28
2018-11-03T15:50:13.658Z,101601.90
2018-11-03T15:52:42.208Z,101605.73
2018-11-03T15:55:10.345Z,101599.63
2018-11-03T15:57:39.371Z,101601.51
2018-11-03T16:00:11.926Z,101603.73
2018-11-03T16:02:40.095Z,101605.09
2018-11-03T16:05:08.336Z,101602.32
2018-11-03T16:07:37.174Z,101600.29
2018-11-03T16:10:08.179Z,101601.14
2018-11-03T16:12:36.447Z,101600.29
2018-11-03T16:15:05.115Z,101598.23
2018-11-03T16:17:33.389Z,101601.53
2018-11-03T16:20:03.100Z,101597.97
2018-11-03T16:22:31.288Z,101596.59
2018-11-03T16:24:59.464Z,101603.83
2018-11-03T16:27:28.626Z,101601.64
2018-11-03T16:29:56.811Z,101605.86
2018-11-03T16:32:25.010Z,101598.52
2018-11-03T16:34:53.142Z,101597.99
2018-11-03T16:37:21.989Z,101596.52
2018-11-03T16:39:51.136Z,101589.91
2018-11-03T16:42:19.306Z,101583.34
2018-11-03T16:44:48.200Z,101588.41
2018-11-03T16:47:16.331Z,101586.12
2018-11-03T16:49:44.448Z,101589.13
2018-11-03T16:52:12.633Z,101586.64
2018-11-03T16:54:40.842Z,101588.17
2018-11-03T16:57:09.277Z,101592.38
2018-11-03T16:59:37.416Z,101584.81
2018-11-03T17:02:06.007Z,101590.18
2018-11-03T17:04:34.214Z,101587.47
2018-11-03T17:07:02.885Z,101578.04
2018-11-03T17:09:31.034Z,101587.09
2018-11-03T17:11:59.230Z,101582.20
2018-11-03T17:14:27.991Z,101575.53
2018-11-03T17:16:56.143Z,101578.25
2018-11-03T17:19:24.330Z,101572.84
2018-11-03T17:21:52.570Z,101570.86
2018-11-03T17:24:20.988Z,101562.64
2018-11-03T17:26:49.179Z,101558.44
2018-11-03T17:29:17.339Z,101556.98
2018-11-03T17:31:45.499Z,101557.36
2018-11-03T17:34:15.071Z,101548.97
2018-11-03T17:36:43.301Z,101545.63
2018-11-03T17:39:11.690Z,101549.44
2018-11-03T17:41:39.874Z,101543.89
2018-11-03T17:44:08.239Z,101550.48
2018-11-03T17:46:37.182Z,101544.66
2018-11-03T17:49:05.674Z,101533.41
2018-11-03T17:51:33.844Z,101546.11
2018-11-03T17:54:02.112Z,101548.52
2018-11-03T17:56:30.255Z,101544.00
2018-11-03T17:58:58.497Z,101541.43
2018-11-03T18:01:26.918Z,101548.34
2018-11-03T18:03:55.011Z,101549.00
2018-11-03T18:06:23.897Z,101554.32
2018-11-03T18:08:52.045Z,101552.31
2018-11-03T18:11:20.298Z,101552.23
2018-11-03T18:13:48.487Z,101550.69
2018-11-03T18:16:16.715Z,101551.09
2018-11-03T18:18:44.857Z,101539.46
2018-11-03T18:21:13.030Z,101552.27
2018-11-03T18:23:41.461Z,101552.60
2018-11-03T18:26:09.914Z,101545.27
2018-11-03T18:28:38.116Z,101544.85
2018-11-03T18:31:06.392Z,101541.40
2018-11-03T18:33:34.909Z,101536.22
2018-11-03T18:36:03.014Z,101540.26
2018-11-03T18:38:31.170Z,101543.19
2018-11-03T18:40:59.348Z,101537.88
2018-11-03T18:43:28.823Z,101534.03
2018-11-03T18:45:57.016Z,101529.59
2018-11-03T18:48:25.203Z,101539.02
2018-11-03T18:50:53.434Z,101535.58
2018-11-03T18:53:21.667Z,101530.66
2018-11-03T18:55:51.117Z,101534.08
2018-11-03T18:58:19.292Z,101531.83
2018-11-03T19:00:47.446Z,101528.97
2018-11-03T19:03:15.703Z,101532.33
2018-11-03T19:05:43.940Z,101527.44
2018-11-03T19:08:12.109Z,101525.31
2018-11-03T19:10:40.289Z,101519.83
2018-11-03T19:13:09.088Z,101514.66
2018-11-03T19:15:37.218Z,101515.50
2018-11-03T19:18:05.644Z,101512.97
2018-11-03T19:20:34.133Z,101505.89
2018-11-03T19:23:02.557Z,101507.25
2018-11-03T19:25:31.004Z,101504.63
2018-11-03T19:27:59.485Z,101504.41
2018-11-03T19:30:28.408Z,101500.27
2018-11-03T19:32:57.434Z,101501.94
2018-11-03T19:35:25.996Z,101497.98
2018-11-03T19:37:55.344Z,101495.83
2018-11-03T19:40:23.851Z,101498.02
2018-11-03T19:42:52.309Z,101484.63
2018-11-03T19:45:20.878Z,101490.13
2018-11-03T19:47:49.290Z,101482.16
2018-11-03T19:50:17.866Z,101477.04
2018-11-03T19:52:46.524Z,101481.39
2018-11-03T19:55:14.979Z,101485.39
2018-11-03T19:57:43.197Z,101491.75
2018-11-03T20:00:14.474Z,101474.80
2018-11-03T20:02:42.762Z,101479.66
2018-11-03T20:05:11.418Z,101475.08
2018-11-03T20:07:41.902Z,101466.84
2018-11-03T20:10:10.410Z,101467.37
2018-11-03T20:12:38.593Z,101477.58
2018-11-03T20:15:08.747Z,101472.49
2018-11-03T20:17:36.938Z,101477.54
2018-11-03T20:20:07.165Z,101476.31
2018-11-03T20:22:35.318Z,101477.50
2018-11-03T20:25:03.888Z,101473.27
2018-11-03T20:27:32.050Z,101466.34
2018-11-03T20:30:00.174Z,101464.84
2018-11-03T20:32:28.369Z,101462.91
2018-11-03T20:34:56.598Z,101461.98
2018-11-03T20:37:24.759Z,101460.22
2018-11-03T20:39:53.009Z,101456.13
2018-11-03T20:42:21.164Z,101450.63
2018-11-03T20:44:49.768Z,101438.92
2018-11-03T20:47:17.951Z,101437.34
2018-11-03T20:49:46.906Z,101443.39
2018-11-03T20:52:15.117Z,101442.89
2018-11-03T20:54:43.322Z,101442.39
2018-11-03T20:57:11.480Z,101436.11
2018-11-03T20:59:40.629Z,101437.08
2018-11-03T21:02:08.844Z,101436.16
2018-11-03T21:04:36.926Z,101433.84
2018-11-03T21:07:05.376Z,101434.84
2018-11-03T21:09:33.593Z,101430.27
2018-11-03T21:12:03.053Z,101419.44
2018-11-03T21:14:31.416Z,101419.02
2018-11-03T21:17:00.703Z,101419.48
2018-11-03T21:19:28.914Z,101414.55
2018-11-03T21:21:57.086Z,101419.83
2018-11-03T21:24:25.221Z,101411.94
2018-11-03T21:26:53.392Z,101403.27
2018-11-03T21:29:21.584Z,101402.11
2018-11-03T21:31:49.795Z,101401.89
2018-11-03T21:34:17.878Z,101392.98
2018-11-03T21:36:46.092Z,101384.40
2018-11-03T21:39:14.352Z,101380.66
2018-11-03T21:41:43.562Z,101379.25
2018-11-03T21:44:11.718Z,101372.25
2018-11-03T21:46:39.946Z,101373.67
2018-11-03T21:49:08.316Z,101366.75
2018-11-03T21:51:36.495Z,101362.75
2018-11-03T21:54:05.360Z,101362.55
2018-11-03T21:56:33.607Z,101361.59
2018-11-03T21:59:01.735Z,101358.47
2018-11-03T22:01:29.852Z,101358.08
2018-11-03T22:03:58.064Z,101355.68
2018-11-03T22:06:26.348Z,101355.68
2018-11-03T22:08:54.349Z,101353.09
2018-11-03T22:11:22.501Z,101355.68
2018-11-03T22:13:50.609Z,101355.02
2018-11-03T22:16:18.769Z,101353.56
2018-11-03T22:18:46.955Z,101350.05
2018-11-03T22:21:15.089Z,101344.40
2018-11-03T22:23:43.277Z,101344.44
2018-11-03T22:26:11.676Z,101341.82
2018-11-03T22:28:39.904Z,101339.08
2018-11-03T22:31:08.076Z,101333.16
2018-11-03T22:33:36.219Z,101325.28
2018-11-03T22:36:05.129Z,101321.75
2018-11-03T22:38:33.396Z,101326.83
2018-11-03T22:41:01.537Z,101325.55
2018-11-03T22:43:29.716Z,101317.52
2018-11-03T22:45:57.870Z,101307.20
2018-11-03T22:48:26.250Z,101300.28
2018-11-03T22:50:54.483Z,101298.01
2018-11-03T22:53:23.143Z,101292.90
2018-11-03T22:55:51.561Z,101288.52
2018-11-03T22:58:20.457Z,101284.92
2018-11-03T23:00:54.476Z,101284.47
2018-11-03T23:03:22.629Z,101277.54
2018-11-03T23:05:50.753Z,101271.89
2018-11-03T23:08:18.916Z,101269.03
2018-11-03T23:10:47.163Z,101269.99
2018-11-03T23:13:15.431Z,101266.84
2018-11-03T23:15:43.712Z,101263.20
2018-11-03T23:18:12.192Z,101257.92
2018-11-03T23:20:40.885Z,101251.63
2018-11-03T23:23:08.990Z,101241.81
2018-11-03T23:25:37.132Z,101236.81
2018-11-03T23:28:05.724Z,101235.41
2018-11-03T23:30:34.447Z,101228.67
2018-11-03T23:33:02.544Z,101225.78
2018-11-03T23:35:31.361Z,101224.19
2018-11-03T23:37:59.498Z,101219.35
2018-11-03T23:40:27.694Z,101218.29
2018-11-03T23:42:55.816Z,101218.34
2018-11-03T23:45:24.070Z,101216.05
2018-11-03T23:47:52.790Z,101212.39
2018-11-03T23:50:20.968Z,101209.30
2018-11-03T23:52:49.162Z,101215.53
2018-11-03T23:55:17.309Z,101210.26
2018-11-03T23:57:45.483Z,101212.95
